sensor_id;sensor_type;location;lat;lon;timestamp;P1;durP1;ratioP1;P2;durP2;ratioP2
7191;SDS011;3637;51.494;11.958;2023-05-02T00:01:48;9.70;;;5.87;;
7191;SDS011;3637;51.494;11.958;2023-05-02T00:04:51;7.80;;;5.90;;
7191;SDS011;3637;51.494;11.958;2023-05-02T00:07:52;8.33;;;6.33;;
7191;SDS011;3637;51.494;11.958;2023-05-02T00:10:54;8.60;;;5.40;;
7191;SDS011;3637;51.494;11.958;2023-05-02T00:13:56;8.30;;;5.90;;
7191;SDS011;3637;51.494;11.958;2023-05-02T00:17:02;7.40;;;6.03;;
7191;SDS011;3637;51.494;11.958;2023-05-02T00:20:05;6.87;;;5.43;;
7191;SDS011;3637;51.494;11.958;2023-05-02T00:23:08;6.50;;;5.43;;
7191;SDS011;3637;51.494;11.958;2023-05-02T00:26:11;9.17;;;6.43;;
7191;SDS011;3637;51.494;11.958;2023-05-02T00:29:12;6.83;;;5.77;;
7191;SDS011;3637;51.494;11.958;2023-05-02T00:32:16;8.00;;;5.50;;
7191;SDS011;3637;51.494;11.958;2023-05-02T00:35:17;7.00;;;5.77;;
7191;SDS011;3637;51.494;11.958;2023-05-02T00:38:19;7.60;;;5.70;;
7191;SDS011;3637;51.494;11.958;2023-05-02T00:41:21;6.70;;;5.87;;
7191;SDS011;3637;51.494;11.958;2023-05-02T00:44:23;7.87;;;5.67;;
7191;SDS011;3637;51.494;11.958;2023-05-02T00:47:26;8.07;;;5.53;;
7191;SDS011;3637;51.494;11.958;2023-05-02T00:50:28;7.47;;;5.60;;
7191;SDS011;3637;51.494;11.958;2023-05-02T00:53:30;6.70;;;5.10;;
7191;SDS011;3637;51.494;11.958;2023-05-02T00:56:32;5.63;;;4.40;;
7191;SDS011;3637;51.494;11.958;2023-05-02T00:59:34;5.17;;;4.30;;
7191;SDS011;3637;51.494;11.958;2023-05-02T01:02:42;5.40;;;4.63;;
7191;SDS011;3637;51.494;11.958;2023-05-02T01:05:53;6.07;;;4.50;;
7191;SDS011;3637;51.494;11.958;2023-05-02T01:09:11;4.80;;;4.30;;
7191;SDS011;3637;51.494;11.958;2023-05-02T01:12:26;5.67;;;4.50;;
7191;SDS011;3637;51.494;11.958;2023-05-02T01:15:31;4.93;;;4.00;;
7191;SDS011;3637;51.494;11.958;2023-05-02T01:18:37;4.77;;;4.23;;
7191;SDS011;3637;51.494;11.958;2023-05-02T01:21:41;4.77;;;3.83;;
7191;SDS011;3637;51.494;11.958;2023-05-02T01:24:48;5.33;;;4.10;;
7191;SDS011;3637;51.494;11.958;2023-05-02T01:28:03;5.43;;;4.20;;
7191;SDS011;3637;51.494;11.958;2023-05-02T01:31:16;7.53;;;4.50;;
7191;SDS011;3637;51.494;11.958;2023-05-02T01:34:19;6.57;;;4.33;;
7191;SDS011;3637;51.494;11.958;2023-05-02T01:37:22;6.83;;;4.20;;
7191;SDS011;3637;51.494;11.958;2023-05-02T01:40:26;4.93;;;4.13;;
7191;SDS011;3637;51.494;11.958;2023-05-02T01:43:28;4.93;;;4.10;;
7191;SDS011;3637;51.494;11.958;2023-05-02T01:46:33;6.57;;;4.23;;
7191;SDS011;3637;51.494;11.958;2023-05-02T01:49:38;4.00;;;3.60;;
7191;SDS011;3637;51.494;11.958;2023-05-02T01:52:42;5.27;;;3.97;;
7191;SDS011;3637;51.494;11.958;2023-05-02T01:55:45;4.57;;;4.07;;
7191;SDS011;3637;51.494;11.958;2023-05-02T01:58:49;4.33;;;3.80;;
7191;SDS011;3637;51.494;11.958;2023-05-02T02:01:54;4.40;;;4.00;;
7191;SDS011;3637;51.494;11.958;2023-05-02T02:05:00;4.43;;;3.93;;
7191;SDS011;3637;51.494;11.958;2023-05-02T02:08:04;5.20;;;4.10;;
7191;SDS011;3637;51.494;11.958;2023-05-02T02:11:08;5.13;;;3.60;;
7191;SDS011;3637;51.494;11.958;2023-05-02T02:14:14;5.03;;;3.60;;
7191;SDS011;3637;51.494;11.958;2023-05-02T02:17:23;5.00;;;3.47;;
7191;SDS011;3637;51.494;11.958;2023-05-02T02:20:28;4.27;;;3.40;;
7191;SDS011;3637;51.494;11.958;2023-05-02T02:23:31;4.20;;;3.60;;
7191;SDS011;3637;51.494;11.958;2023-05-02T02:26:35;5.30;;;3.70;;
7191;SDS011;3637;51.494;11.958;2023-05-02T02:29:37;4.73;;;3.83;;
7191;SDS011;3637;51.494;11.958;2023-05-02T02:32:40;3.63;;;3.33;;
7191;SDS011;3637;51.494;11.958;2023-05-02T02:35:43;5.60;;;3.47;;
7191;SDS011;3637;51.494;11.958;2023-05-02T02:38:53;4.67;;;3.20;;
7191;SDS011;3637;51.494;11.958;2023-05-02T02:42:02;4.27;;;3.33;;
7191;SDS011;3637;51.494;11.958;2023-05-02T02:45:14;4.87;;;3.33;;
7191;SDS011;3637;51.494;11.958;2023-05-02T02:48:28;3.80;;;3.07;;
7191;SDS011;3637;51.494;11.958;2023-05-02T02:51:36;6.47;;;3.40;;
7191;SDS011;3637;51.494;11.958;2023-05-02T02:54:45;7.33;;;3.43;;
7191;SDS011;3637;51.494;11.958;2023-05-02T02:57:54;4.40;;;3.30;;
7191;SDS011;3637;51.494;11.958;2023-05-02T03:01:02;7.70;;;2.90;;
7191;SDS011;3637;51.494;11.958;2023-05-02T03:04:08;4.20;;;3.10;;
7191;SDS011;3637;51.494;11.958;2023-05-02T03:07:13;4.93;;;3.30;;
7191;SDS011;3637;51.494;11.958;2023-05-02T03:10:15;4.60;;;3.03;;
7191;SDS011;3637;51.494;11.958;2023-05-02T03:13:17;4.90;;;3.20;;
7191;SDS011;3637;51.494;11.958;2023-05-02T03:19:37;4.83;;;3.10;;
7191;SDS011;3637;51.494;11.958;2023-05-02T03:22:39;6.13;;;3.40;;
7191;SDS011;3637;51.494;11.958;2023-05-02T03:25:41;3.60;;;3.20;;
7191;SDS011;3637;51.494;11.958;2023-05-02T03:28:42;4.93;;;3.57;;
7191;SDS011;3637;51.494;11.958;2023-05-02T03:31:45;4.97;;;3.37;;
7191;SDS011;3637;51.494;11.958;2023-05-02T03:34:48;4.37;;;3.33;;
7191;SDS011;3637;51.494;11.958;2023-05-02T03:37:50;6.43;;;3.70;;
7191;SDS011;3637;51.494;11.958;2023-05-02T03:40:52;5.00;;;3.40;;
7191;SDS011;3637;51.494;11.958;2023-05-02T03:43:59;4.90;;;3.57;;
7191;SDS011;3637;51.494;11.958;2023-05-02T03:47:02;4.53;;;3.67;;
7191;SDS011;3637;51.494;11.958;2023-05-02T03:50:06;5.47;;;3.67;;
7191;SDS011;3637;51.494;11.958;2023-05-02T03:53:11;6.50;;;3.70;;
7191;SDS011;3637;51.494;11.958;2023-05-02T03:56:15;5.23;;;3.63;;
7191;SDS011;3637;51.494;11.958;2023-05-02T03:59:19;5.13;;;3.90;;
7191;SDS011;3637;51.494;11.958;2023-05-02T04:02:21;7.47;;;4.30;;
7191;SDS011;3637;51.494;11.958;2023-05-02T04:05:25;5.07;;;3.30;;
7191;SDS011;3637;51.494;11.958;2023-05-02T04:08:27;4.60;;;3.60;;
7191;SDS011;3637;51.494;11.958;2023-05-02T04:11:29;3.93;;;3.53;;
7191;SDS011;3637;51.494;11.958;2023-05-02T04:14:31;5.47;;;3.70;;
7191;SDS011;3637;51.494;11.958;2023-05-02T04:17:33;4.10;;;3.53;;
7191;SDS011;3637;51.494;11.958;2023-05-02T04:20:36;5.87;;;3.70;;
7191;SDS011;3637;51.494;11.958;2023-05-02T04:23:38;3.90;;;3.50;;
7191;SDS011;3637;51.494;11.958;2023-05-02T04:26:40;4.57;;;3.33;;
7191;SDS011;3637;51.494;11.958;2023-05-02T04:29:42;5.23;;;3.40;;
7191;SDS011;3637;51.494;11.958;2023-05-02T04:32:44;5.53;;;3.67;;
7191;SDS011;3637;51.494;11.958;2023-05-02T04:35:47;4.27;;;3.47;;
7191;SDS011;3637;51.494;11.958;2023-05-02T04:38:49;3.93;;;3.53;;
7191;SDS011;3637;51.494;11.958;2023-05-02T04:41:51;4.20;;;3.60;;
7191;SDS011;3637;51.494;11.958;2023-05-02T04:44:53;5.70;;;3.80;;
7191;SDS011;3637;51.494;11.958;2023-05-02T04:47:55;6.03;;;3.67;;
7191;SDS011;3637;51.494;11.958;2023-05-02T04:50:58;4.37;;;3.60;;
7191;SDS011;3637;51.494;11.958;2023-05-02T04:54:00;5.83;;;3.97;;
7191;SDS011;3637;51.494;11.958;2023-05-02T04:57:01;4.20;;;3.73;;
7191;SDS011;3637;51.494;11.958;2023-05-02T05:00:06;7.27;;;3.50;;
7191;SDS011;3637;51.494;11.958;2023-05-02T05:03:09;4.40;;;3.30;;
7191;SDS011;3637;51.494;11.958;2023-05-02T05:06:14;9.53;;;3.87;;
7191;SDS011;3637;51.494;11.958;2023-05-02T05:09:16;4.53;;;3.90;;
7191;SDS011;3637;51.494;11.958;2023-05-02T05:12:18;4.03;;;3.63;;
7191;SDS011;3637;51.494;11.958;2023-05-02T05:15:20;4.53;;;3.87;;
7191;SDS011;3637;51.494;11.958;2023-05-02T05:18:24;4.47;;;3.90;;
7191;SDS011;3637;51.494;11.958;2023-05-02T05:21:27;6.03;;;3.97;;
7191;SDS011;3637;51.494;11.958;2023-05-02T05:24:30;4.73;;;4.00;;
7191;SDS011;3637;51.494;11.958;2023-05-02T05:27:32;5.00;;;3.90;;
7191;SDS011;3637;51.494;11.958;2023-05-02T05:30:34;5.03;;;3.83;;
7191;SDS011;3637;51.494;11.958;2023-05-02T05:33:36;5.50;;;4.00;;
7191;SDS011;3637;51.494;11.958;2023-05-02T05:36:40;4.13;;;3.70;;
7191;SDS011;3637;51.494;11.958;2023-05-02T05:39:42;5.63;;;4.00;;
7191;SDS011;3637;51.494;11.958;2023-05-02T05:42:43;5.57;;;3.93;;
7191;SDS011;3637;51.494;11.958;2023-05-02T05:45:45;5.40;;;3.80;;
7191;SDS011;3637;51.494;11.958;2023-05-02T05:48:47;6.93;;;4.10;;
7191;SDS011;3637;51.494;11.958;2023-05-02T05:51:50;6.47;;;4.10;;
7191;SDS011;3637;51.494;11.958;2023-05-02T05:54:52;6.57;;;3.90;;
7191;SDS011;3637;51.494;11.958;2023-05-02T05:57:54;4.90;;;3.57;;
7191;SDS011;3637;51.494;11.958;2023-05-02T06:00:56;6.27;;;3.80;;
7191;SDS011;3637;51.494;11.958;2023-05-02T06:03:58;4.93;;;3.80;;
7191;SDS011;3637;51.494;11.958;2023-05-02T06:07:01;5.60;;;4.03;;
7191;SDS011;3637;51.494;11.958;2023-05-02T06:10:03;5.10;;;4.27;;
7191;SDS011;3637;51.494;11.958;2023-05-02T06:13:05;7.90;;;4.17;;
7191;SDS011;3637;51.494;11.958;2023-05-02T06:16:07;6.63;;;4.00;;
7191;SDS011;3637;51.494;11.958;2023-05-02T06:19:09;8.43;;;4.33;;
7191;SDS011;3637;51.494;11.958;2023-05-02T06:22:12;5.07;;;3.93;;
7191;SDS011;3637;51.494;11.958;2023-05-02T06:25:14;6.00;;;4.70;;
7191;SDS011;3637;51.494;11.958;2023-05-02T06:28:16;5.60;;;4.40;;
7191;SDS011;3637;51.494;11.958;2023-05-02T06:31:18;6.73;;;4.87;;
7191;SDS011;3637;51.494;11.958;2023-05-02T06:34:19;7.70;;;5.27;;
7191;SDS011;3637;51.494;11.958;2023-05-02T06:37:23;8.93;;;6.07;;
7191;SDS011;3637;51.494;11.958;2023-05-02T06:40:25;11.33;;;6.63;;
7191;SDS011;3637;51.494;11.958;2023-05-02T06:43:26;10.50;;;6.50;;
7191;SDS011;3637;51.494;11.958;2023-05-02T06:46:28;12.37;;;6.63;;
7191;SDS011;3637;51.494;11.958;2023-05-02T06:49:30;10.97;;;6.30;;
7191;SDS011;3637;51.494;11.958;2023-05-02T06:52:34;11.80;;;6.23;;
7191;SDS011;3637;51.494;11.958;2023-05-02T06:55:35;10.13;;;7.00;;
7191;SDS011;3637;51.494;11.958;2023-05-02T06:58:37;14.70;;;8.53;;
7191;SDS011;3637;51.494;11.958;2023-05-02T07:01:53;13.20;;;9.27;;
7191;SDS011;3637;51.494;11.958;2023-05-02T07:05:00;15.33;;;10.63;;
7191;SDS011;3637;51.494;11.958;2023-05-02T07:08:04;17.10;;;10.10;;
7191;SDS011;3637;51.494;11.958;2023-05-02T07:11:08;19.67;;;11.20;;
7191;SDS011;3637;51.494;11.958;2023-05-02T07:14:10;17.07;;;10.47;;
7191;SDS011;3637;51.494;11.958;2023-05-02T07:17:12;17.00;;;10.03;;
7191;SDS011;3637;51.494;11.958;2023-05-02T07:20:14;15.70;;;10.40;;
7191;SDS011;3637;51.494;11.958;2023-05-02T07:23:17;16.77;;;11.73;;
7191;SDS011;3637;51.494;11.958;2023-05-02T07:26:19;15.77;;;11.33;;
7191;SDS011;3637;51.494;11.958;2023-05-02T07:29:22;18.20;;;11.97;;
7191;SDS011;3637;51.494;11.958;2023-05-02T07:32:24;18.87;;;12.30;;
7191;SDS011;3637;51.494;11.958;2023-05-02T07:35:26;18.93;;;12.10;;
7191;SDS011;3637;51.494;11.958;2023-05-02T07:38:29;20.50;;;12.47;;
7191;SDS011;3637;51.494;11.958;2023-05-02T07:41:31;19.07;;;12.13;;
7191;SDS011;3637;51.494;11.958;2023-05-02T07:44:33;21.47;;;11.80;;
7191;SDS011;3637;51.494;11.958;2023-05-02T07:47:35;17.23;;;12.43;;
7191;SDS011;3637;51.494;11.958;2023-05-02T07:50:37;18.67;;;12.47;;
7191;SDS011;3637;51.494;11.958;2023-05-02T07:53:40;19.40;;;12.23;;
7191;SDS011;3637;51.494;11.958;2023-05-02T07:56:42;17.07;;;12.13;;
7191;SDS011;3637;51.494;11.958;2023-05-02T07:59:44;16.93;;;11.47;;
7191;SDS011;3637;51.494;11.958;2023-05-02T08:02:46;19.30;;;12.47;;
7191;SDS011;3637;51.494;11.958;2023-05-02T08:05:48;19.93;;;12.47;;
7191;SDS011;3637;51.494;11.958;2023-05-02T08:08:51;20.63;;;12.43;;
7191;SDS011;3637;51.494;11.958;2023-05-02T08:11:53;15.47;;;11.13;;
7191;SDS011;3637;51.494;11.958;2023-05-02T08:14:54;16.93;;;11.80;;
7191;SDS011;3637;51.494;11.958;2023-05-02T08:17:56;18.43;;;12.07;;
7191;SDS011;3637;51.494;11.958;2023-05-02T08:20:58;17.77;;;11.93;;
7191;SDS011;3637;51.494;11.958;2023-05-02T08:24:04;19.00;;;12.33;;
7191;SDS011;3637;51.494;11.958;2023-05-02T08:27:06;19.30;;;12.40;;
7191;SDS011;3637;51.494;11.958;2023-05-02T08:30:08;18.77;;;12.60;;
7191;SDS011;3637;51.494;11.958;2023-05-02T08:33:10;17.77;;;12.17;;
7191;SDS011;3637;51.494;11.958;2023-05-02T08:36:12;20.07;;;12.70;;
7191;SDS011;3637;51.494;11.958;2023-05-02T08:39:16;19.80;;;11.70;;
7191;SDS011;3637;51.494;11.958;2023-05-02T08:42:18;16.17;;;11.27;;
7191;SDS011;3637;51.494;11.958;2023-05-02T08:45:23;20.63;;;11.90;;
7191;SDS011;3637;51.494;11.958;2023-05-02T08:48:25;17.90;;;11.83;;
7191;SDS011;3637;51.494;11.958;2023-05-02T08:51:30;21.77;;;12.57;;
7191;SDS011;3637;51.494;11.958;2023-05-02T08:54:34;18.23;;;12.07;;
7191;SDS011;3637;51.494;11.958;2023-05-02T08:57:38;17.97;;;11.40;;
7191;SDS011;3637;51.494;11.958;2023-05-02T09:00:41;18.70;;;10.23;;
7191;SDS011;3637;51.494;11.958;2023-05-02T09:03:45;15.23;;;10.50;;
7191;SDS011;3637;51.494;11.958;2023-05-02T09:06:47;14.37;;;9.83;;
7191;SDS011;3637;51.494;11.958;2023-05-02T09:09:50;16.50;;;10.57;;
7191;SDS011;3637;51.494;11.958;2023-05-02T09:12:52;17.10;;;11.13;;
7191;SDS011;3637;51.494;11.958;2023-05-02T09:16:04;17.53;;;9.67;;
7191;SDS011;3637;51.494;11.958;2023-05-02T09:19:06;18.03;;;10.13;;
7191;SDS011;3637;51.494;11.958;2023-05-02T09:22:09;18.13;;;10.43;;
7191;SDS011;3637;51.494;11.958;2023-05-02T09:25:12;16.53;;;10.80;;
7191;SDS011;3637;51.494;11.958;2023-05-02T09:28:14;15.83;;;10.43;;
7191;SDS011;3637;51.494;11.958;2023-05-02T09:31:17;13.67;;;9.57;;
7191;SDS011;3637;51.494;11.958;2023-05-02T09:34:20;16.57;;;11.00;;
7191;SDS011;3637;51.494;11.958;2023-05-02T09:37:33;15.47;;;10.03;;
7191;SDS011;3637;51.494;11.958;2023-05-02T09:40:37;14.03;;;9.90;;
7191;SDS011;3637;51.494;11.958;2023-05-02T09:43:38;15.97;;;10.10;;
7191;SDS011;3637;51.494;11.958;2023-05-02T09:46:41;12.67;;;9.30;;
7191;SDS011;3637;51.494;11.958;2023-05-02T09:49:44;14.60;;;9.97;;
7191;SDS011;3637;51.494;11.958;2023-05-02T09:52:51;12.10;;;9.07;;
7191;SDS011;3637;51.494;11.958;2023-05-02T09:56:03;12.10;;;9.30;;
7191;SDS011;3637;51.494;11.958;2023-05-02T09:59:11;13.70;;;8.27;;
7191;SDS011;3637;51.494;11.958;2023-05-02T10:02:14;15.13;;;9.27;;
7191;SDS011;3637;51.494;11.958;2023-05-02T10:05:16;12.70;;;9.77;;
7191;SDS011;3637;51.494;11.958;2023-05-02T10:08:20;13.07;;;8.80;;
7191;SDS011;3637;51.494;11.958;2023-05-02T10:11:24;11.53;;;8.73;;
7191;SDS011;3637;51.494;11.958;2023-05-02T10:14:26;14.47;;;9.57;;
7191;SDS011;3637;51.494;11.958;2023-05-02T10:17:30;14.43;;;9.17;;
7191;SDS011;3637;51.494;11.958;2023-05-02T10:20:42;12.17;;;9.10;;
7191;SDS011;3637;51.494;11.958;2023-05-02T10:23:55;13.13;;;8.83;;
7191;SDS011;3637;51.494;11.958;2023-05-02T10:27:01;10.97;;;7.37;;
7191;SDS011;3637;51.494;11.958;2023-05-02T10:30:05;11.37;;;8.07;;
7191;SDS011;3637;51.494;11.958;2023-05-02T10:33:09;9.17;;;7.10;;
7191;SDS011;3637;51.494;11.958;2023-05-02T10:36:14;11.77;;;6.73;;
7191;SDS011;3637;51.494;11.958;2023-05-02T10:39:15;9.00;;;6.13;;
7191;SDS011;3637;51.494;11.958;2023-05-02T10:42:20;9.43;;;6.50;;
7191;SDS011;3637;51.494;11.958;2023-05-02T10:45:30;6.73;;;5.57;;
7191;SDS011;3637;51.494;11.958;2023-05-02T10:48:33;8.13;;;6.80;;
7191;SDS011;3637;51.494;11.958;2023-05-02T10:51:35;8.80;;;6.90;;
7191;SDS011;3637;51.494;11.958;2023-05-02T10:54:38;8.00;;;6.60;;
7191;SDS011;3637;51.494;11.958;2023-05-02T11:01:34;9.13;;;6.60;;
7191;SDS011;3637;51.494;11.958;2023-05-02T11:05:00;8.63;;;6.47;;
7191;SDS011;3637;51.494;11.958;2023-05-02T11:11:39;9.63;;;6.60;;
7191;SDS011;3637;51.494;11.958;2023-05-02T11:14:42;8.00;;;6.13;;
7191;SDS011;3637;51.494;11.958;2023-05-02T11:18:00;8.37;;;5.60;;
7191;SDS011;3637;51.494;11.958;2023-05-02T11:24:35;6.43;;;5.00;;
7191;SDS011;3637;51.494;11.958;2023-05-02T11:27:38;6.17;;;4.90;;
7191;SDS011;3637;51.494;11.958;2023-05-02T11:30:43;6.30;;;5.23;;
7191;SDS011;3637;51.494;11.958;2023-05-02T11:33:55;6.13;;;5.00;;
7191;SDS011;3637;51.494;11.958;2023-05-02T11:36:57;6.50;;;4.77;;
7191;SDS011;3637;51.494;11.958;2023-05-02T11:40:09;5.80;;;5.20;;
7191;SDS011;3637;51.494;11.958;2023-05-02T11:43:11;5.70;;;4.53;;
7191;SDS011;3637;51.494;11.958;2023-05-02T11:46:14;5.57;;;4.60;;
7191;SDS011;3637;51.494;11.958;2023-05-02T11:49:19;6.20;;;5.00;;
7191;SDS011;3637;51.494;11.958;2023-05-02T11:52:21;5.47;;;4.70;;
7191;SDS011;3637;51.494;11.958;2023-05-02T11:55:23;5.90;;;4.90;;
7191;SDS011;3637;51.494;11.958;2023-05-02T11:58:25;4.60;;;4.20;;
7191;SDS011;3637;51.494;11.958;2023-05-02T12:01:28;4.30;;;3.90;;
7191;SDS011;3637;51.494;11.958;2023-05-02T12:04:32;8.20;;;4.83;;
7191;SDS011;3637;51.494;11.958;2023-05-02T12:07:43;5.13;;;4.43;;
7191;SDS011;3637;51.494;11.958;2023-05-02T12:10:48;6.33;;;4.10;;
7191;SDS011;3637;51.494;11.958;2023-05-02T12:13:51;5.00;;;3.43;;
7191;SDS011;3637;51.494;11.958;2023-05-02T12:16:53;4.63;;;3.37;;
7191;SDS011;3637;51.494;11.958;2023-05-02T12:19:56;3.77;;;3.37;;
7191;SDS011;3637;51.494;11.958;2023-05-02T12:22:58;6.17;;;3.53;;
7191;SDS011;3637;51.494;11.958;2023-05-02T12:26:09;5.03;;;3.40;;
7191;SDS011;3637;51.494;11.958;2023-05-02T12:29:16;6.43;;;3.30;;
7191;SDS011;3637;51.494;11.958;2023-05-02T12:32:25;9.93;;;4.07;;
7191;SDS011;3637;51.494;11.958;2023-05-02T12:35:30;5.67;;;3.90;;
7191;SDS011;3637;51.494;11.958;2023-05-02T12:38:32;5.77;;;4.00;;
7191;SDS011;3637;51.494;11.958;2023-05-02T12:41:35;7.87;;;4.67;;
7191;SDS011;3637;51.494;11.958;2023-05-02T12:44:38;7.67;;;4.67;;
7191;SDS011;3637;51.494;11.958;2023-05-02T12:47:43;7.73;;;4.60;;
7191;SDS011;3637;51.494;11.958;2023-05-02T12:50:47;5.83;;;4.60;;
7191;SDS011;3637;51.494;11.958;2023-05-02T12:53:49;10.23;;;5.30;;
7191;SDS011;3637;51.494;11.958;2023-05-02T12:56:51;8.67;;;5.63;;
7191;SDS011;3637;51.494;11.958;2023-05-02T12:59:53;8.83;;;6.57;;
7191;SDS011;3637;51.494;11.958;2023-05-02T13:02:55;10.63;;;6.57;;
7191;SDS011;3637;51.494;11.958;2023-05-02T13:06:00;11.73;;;6.87;;
7191;SDS011;3637;51.494;11.958;2023-05-02T13:09:05;10.73;;;6.67;;
7191;SDS011;3637;51.494;11.958;2023-05-02T13:12:06;11.33;;;7.13;;
7191;SDS011;3637;51.494;11.958;2023-05-02T13:15:09;10.53;;;5.80;;
7191;SDS011;3637;51.494;11.958;2023-05-02T13:18:11;11.03;;;6.33;;
7191;SDS011;3637;51.494;11.958;2023-05-02T13:21:14;9.23;;;6.00;;
7191;SDS011;3637;51.494;11.958;2023-05-02T13:24:16;9.13;;;5.53;;
7191;SDS011;3637;51.494;11.958;2023-05-02T13:27:21;8.63;;;4.90;;
7191;SDS011;3637;51.494;11.958;2023-05-02T13:30:23;7.97;;;4.43;;
7191;SDS011;3637;51.494;11.958;2023-05-02T13:33:25;8.67;;;4.10;;
7191;SDS011;3637;51.494;11.958;2023-05-02T13:36:28;10.63;;;4.60;;
7191;SDS011;3637;51.494;11.958;2023-05-02T13:39:30;5.87;;;4.20;;
7191;SDS011;3637;51.494;11.958;2023-05-02T13:42:32;8.57;;;4.57;;
7191;SDS011;3637;51.494;11.958;2023-05-02T13:45:34;10.60;;;4.30;;
7191;SDS011;3637;51.494;11.958;2023-05-02T13:48:35;9.67;;;4.13;;
7191;SDS011;3637;51.494;11.958;2023-05-02T13:51:39;9.23;;;4.50;;
7191;SDS011;3637;51.494;11.958;2023-05-02T13:54:40;7.40;;;4.43;;
7191;SDS011;3637;51.494;11.958;2023-05-02T13:57:42;10.50;;;4.20;;
7191;SDS011;3637;51.494;11.958;2023-05-02T14:00:44;6.13;;;3.80;;
7191;SDS011;3637;51.494;11.958;2023-05-02T14:03:46;8.13;;;4.27;;
7191;SDS011;3637;51.494;11.958;2023-05-02T14:06:49;7.97;;;4.17;;
7191;SDS011;3637;51.494;11.958;2023-05-02T14:09:51;9.77;;;3.90;;
7191;SDS011;3637;51.494;11.958;2023-05-02T14:12:53;5.87;;;3.80;;
7191;SDS011;3637;51.494;11.958;2023-05-02T14:15:55;6.33;;;4.43;;
7191;SDS011;3637;51.494;11.958;2023-05-02T14:18:57;6.83;;;4.00;;
7191;SDS011;3637;51.494;11.958;2023-05-02T14:22:00;8.97;;;4.30;;
7191;SDS011;3637;51.494;11.958;2023-05-02T14:25:02;8.00;;;4.73;;
7191;SDS011;3637;51.494;11.958;2023-05-02T14:28:05;6.60;;;4.63;;
7191;SDS011;3637;51.494;11.958;2023-05-02T14:31:06;7.37;;;4.20;;
7191;SDS011;3637;51.494;11.958;2023-05-02T14:34:08;5.73;;;4.53;;
7191;SDS011;3637;51.494;11.958;2023-05-02T14:37:12;6.63;;;4.23;;
7191;SDS011;3637;51.494;11.958;2023-05-02T14:40:13;6.43;;;3.50;;
7191;SDS011;3637;51.494;11.958;2023-05-02T14:43:15;4.47;;;3.40;;
7191;SDS011;3637;51.494;11.958;2023-05-02T14:46:18;7.93;;;3.37;;
7191;SDS011;3637;51.494;11.958;2023-05-02T14:49:20;6.93;;;4.00;;
7191;SDS011;3637;51.494;11.958;2023-05-02T14:52:24;5.27;;;3.67;;
7191;SDS011;3637;51.494;11.958;2023-05-02T14:55:26;7.40;;;3.27;;
7191;SDS011;3637;51.494;11.958;2023-05-02T14:58:28;3.63;;;3.30;;
7191;SDS011;3637;51.494;11.958;2023-05-02T15:01:30;4.90;;;3.47;;
7191;SDS011;3637;51.494;11.958;2023-05-02T15:04:32;5.43;;;3.90;;
7191;SDS011;3637;51.494;11.958;2023-05-02T15:07:38;5.17;;;3.73;;
7191;SDS011;3637;51.494;11.958;2023-05-02T15:10:40;5.47;;;3.87;;
7191;SDS011;3637;51.494;11.958;2023-05-02T15:13:42;6.57;;;4.03;;
7191;SDS011;3637;51.494;11.958;2023-05-02T15:16:44;4.90;;;3.90;;
7191;SDS011;3637;51.494;11.958;2023-05-02T15:19:46;5.67;;;4.03;;
7191;SDS011;3637;51.494;11.958;2023-05-02T15:22:50;5.83;;;4.23;;
7191;SDS011;3637;51.494;11.958;2023-05-02T15:25:52;5.83;;;4.20;;
7191;SDS011;3637;51.494;11.958;2023-05-02T15:28:53;5.40;;;4.40;;
7191;SDS011;3637;51.494;11.958;2023-05-02T15:31:55;5.17;;;4.20;;
7191;SDS011;3637;51.494;11.958;2023-05-02T15:34:57;5.07;;;4.50;;
7191;SDS011;3637;51.494;11.958;2023-05-02T15:38:00;6.73;;;4.50;;
7191;SDS011;3637;51.494;11.958;2023-05-02T15:41:02;5.60;;;4.10;;
7191;SDS011;3637;51.494;11.958;2023-05-02T15:44:05;5.47;;;3.90;;
7191;SDS011;3637;51.494;11.958;2023-05-02T15:47:07;7.80;;;4.07;;
7191;SDS011;3637;51.494;11.958;2023-05-02T15:50:09;6.43;;;3.87;;
7191;SDS011;3637;51.494;11.958;2023-05-02T15:53:12;6.87;;;3.90;;
7191;SDS011;3637;51.494;11.958;2023-05-02T15:56:14;5.80;;;3.93;;
7191;SDS011;3637;51.494;11.958;2023-05-02T15:59:16;5.53;;;3.87;;
7191;SDS011;3637;51.494;11.958;2023-05-02T16:02:18;7.53;;;4.30;;
7191;SDS011;3637;51.494;11.958;2023-05-02T16:05:21;5.23;;;3.63;;
7191;SDS011;3637;51.494;11.958;2023-05-02T16:08:24;9.33;;;4.13;;
7191;SDS011;3637;51.494;11.958;2023-05-02T16:11:26;5.53;;;3.83;;
7191;SDS011;3637;51.494;11.958;2023-05-02T16:14:28;7.47;;;3.97;;
7191;SDS011;3637;51.494;11.958;2023-05-02T16:17:29;5.67;;;3.57;;
7191;SDS011;3637;51.494;11.958;2023-05-02T16:20:31;5.57;;;3.40;;
7191;SDS011;3637;51.494;11.958;2023-05-02T16:23:37;7.23;;;4.07;;
7191;SDS011;3637;51.494;11.958;2023-05-02T16:26:38;4.97;;;3.47;;
7191;SDS011;3637;51.494;11.958;2023-05-02T16:29:40;6.90;;;4.30;;
7191;SDS011;3637;51.494;11.958;2023-05-02T16:32:42;6.07;;;3.40;;
7191;SDS011;3637;51.494;11.958;2023-05-02T16:35:44;7.63;;;4.20;;
7191;SDS011;3637;51.494;11.958;2023-05-02T16:38:53;7.17;;;4.37;;
7191;SDS011;3637;51.494;11.958;2023-05-02T16:41:55;7.77;;;4.33;;
7191;SDS011;3637;51.494;11.958;2023-05-02T16:44:56;11.47;;;4.27;;
7191;SDS011;3637;51.494;11.958;2023-05-02T16:47:58;7.30;;;4.40;;
7191;SDS011;3637;51.494;11.958;2023-05-02T16:51:00;5.07;;;4.43;;
7191;SDS011;3637;51.494;11.958;2023-05-02T16:54:03;5.33;;;3.93;;
7191;SDS011;3637;51.494;11.958;2023-05-02T16:57:06;6.13;;;4.20;;
7191;SDS011;3637;51.494;11.958;2023-05-02T17:00:08;4.83;;;4.23;;
7191;SDS011;3637;51.494;11.958;2023-05-02T17:03:11;7.60;;;4.53;;
7191;SDS011;3637;51.494;11.958;2023-05-02T17:06:13;7.30;;;4.27;;
7191;SDS011;3637;51.494;11.958;2023-05-02T17:09:16;6.93;;;4.20;;
7191;SDS011;3637;51.494;11.958;2023-05-02T17:12:18;7.50;;;4.47;;
7191;SDS011;3637;51.494;11.958;2023-05-02T17:15:21;7.80;;;4.40;;
7191;SDS011;3637;51.494;11.958;2023-05-02T17:18:23;7.10;;;4.47;;
7191;SDS011;3637;51.494;11.958;2023-05-02T17:21:25;9.23;;;3.70;;
7191;SDS011;3637;51.494;11.958;2023-05-02T17:24:29;5.60;;;3.73;;
7191;SDS011;3637;51.494;11.958;2023-05-02T17:27:31;8.57;;;3.90;;
7191;SDS011;3637;51.494;11.958;2023-05-02T17:30:33;5.30;;;3.70;;
7191;SDS011;3637;51.494;11.958;2023-05-02T17:33:35;7.33;;;4.07;;
7191;SDS011;3637;51.494;11.958;2023-05-02T17:36:37;7.27;;;3.97;;
7191;SDS011;3637;51.494;11.958;2023-05-02T17:39:42;7.20;;;3.73;;
7191;SDS011;3637;51.494;11.958;2023-05-02T17:42:44;5.83;;;3.90;;
7191;SDS011;3637;51.494;11.958;2023-05-02T17:45:46;7.93;;;3.40;;
7191;SDS011;3637;51.494;11.958;2023-05-02T17:48:48;4.60;;;3.70;;
7191;SDS011;3637;51.494;11.958;2023-05-02T17:51:51;5.87;;;3.80;;
7191;SDS011;3637;51.494;11.958;2023-05-02T17:54:54;6.30;;;3.50;;
7191;SDS011;3637;51.494;11.958;2023-05-02T17:57:56;5.93;;;3.67;;
7191;SDS011;3637;51.494;11.958;2023-05-02T18:01:04;7.13;;;4.03;;
7191;SDS011;3637;51.494;11.958;2023-05-02T18:04:10;7.93;;;3.67;;
7191;SDS011;3637;51.494;11.958;2023-05-02T18:07:13;5.67;;;3.77;;
7191;SDS011;3637;51.494;11.958;2023-05-02T18:10:18;6.17;;;3.80;;
7191;SDS011;3637;51.494;11.958;2023-05-02T18:13:20;6.07;;;3.57;;
7191;SDS011;3637;51.494;11.958;2023-05-02T18:16:21;7.63;;;3.70;;
7191;SDS011;3637;51.494;11.958;2023-05-02T18:19:23;4.93;;;3.57;;
7191;SDS011;3637;51.494;11.958;2023-05-02T18:22:25;6.37;;;3.70;;
7191;SDS011;3637;51.494;11.958;2023-05-02T18:25:28;5.27;;;3.60;;
7191;SDS011;3637;51.494;11.958;2023-05-02T18:28:33;7.30;;;3.70;;
7191;SDS011;3637;51.494;11.958;2023-05-02T18:31:36;7.97;;;3.90;;
7191;SDS011;3637;51.494;11.958;2023-05-02T18:34:39;6.03;;;3.83;;
7191;SDS011;3637;51.494;11.958;2023-05-02T18:37:40;5.33;;;3.60;;
7191;SDS011;3637;51.494;11.958;2023-05-02T18:40:43;7.17;;;3.80;;
7191;SDS011;3637;51.494;11.958;2023-05-02T18:43:45;5.83;;;3.80;;
7191;SDS011;3637;51.494;11.958;2023-05-02T18:46:47;6.77;;;3.83;;
7191;SDS011;3637;51.494;11.958;2023-05-02T18:49:49;6.07;;;3.73;;